Time;durP1;ratioP1;P1;durP2;ratioP2;P2;SDS_P1;SDS_P2;PMS_P1;PMS_P2;Temp;Humidity;BMP_temperature;BMP_pressure;BME280_temperature;BME280_humidity;BME280_pressure;Samples;Min_cycle;Max_cycle;Signal;HPM_P1;HPM_P2
2024/03/01 00:01:50;;;;;;;4.55;3.25;;;9.80;99.90;;;;;;5057481;28;20468;-87
2024/03/01 00:04:17;;;;;;;5.22;3.83;;;9.80;99.90;;;;;;5022453;28;20075;-87
2024/03/01 00:06:43;;;;;;;5.78;4.30;;;9.80;99.90;;;;;;5055457;28;20116;-86
2024/03/01 00:09:09;;;;;;;6.00;4.10;;;9.80;99.90;;;;;;5056910;28;20470;-86
2024/03/01 00:11:35;;;;;;;6.28;4.72;;;9.80;99.90;;;;;;5026634;28;20041;-86
2024/03/01 00:14:00;;;;;;;5.78;4.18;;;9.80;99.90;;;;;;5038794;28;20040;-86
2024/03/01 00:16:28;;;;;;;5.60;4.30;;;9.80;99.90;;;;;;5022071;28;20167;-86
2024/03/01 00:18:54;;;;;;;6.10;4.65;;;9.70;99.90;;;;;;5039077;28;20396;-85
2024/03/01 00:21:22;;;;;;;6.28;4.20;;;9.70;99.90;;;;;;5042359;28;20036;-87
2024/03/01 00:23:48;;;;;;;6.35;4.60;;;9.70;99.90;;;;;;5055181;28;20029;-87
2024/03/01 00:26:14;;;;;;;6.40;4.30;;;9.70;99.90;;;;;;5038334;28;20503;-85
2024/03/01 00:28:40;;;;;;;6.55;4.72;;;9.70;99.90;;;;;;5059542;28;20032;-85
2024/03/01 00:31:06;;;;;;;6.38;4.68;;;9.70;99.90;;;;;;5054943;28;20056;-86
2024/03/01 00:33:35;;;;;;;6.80;4.88;;;9.70;99.90;;;;;;5056072;28;20025;-87
2024/03/01 00:36:00;;;;;;;7.22;4.75;;;9.70;99.90;;;;;;5038313;28;20032;-86
2024/03/01 00:38:26;;;;;;;6.90;4.68;;;9.70;99.90;;;;;;5022084;28;20021;-86
2024/03/01 00:40:53;;;;;;;9.27;5.50;;;9.70;99.90;;;;;;5055768;28;20055;-86
2024/03/01 00:43:24;;;;;;;6.88;5.22;;;9.80;99.90;;;;;;5021728;28;20100;-87
2024/03/01 00:45:50;;;;;;;6.05;4.88;;;9.80;99.90;;;;;;5021857;28;20419;-87
2024/03/01 00:48:16;;;;;;;6.20;4.95;;;9.80;99.90;;;;;;5005347;28;20025;-87
2024/03/01 00:50:43;;;;;;;7.53;5.20;;;9.70;99.90;;;;;;5037960;28;20028;-85
2024/03/01 00:53:11;;;;;;;7.88;5.07;;;9.70;99.90;;;;;;5038455;28;20025;-85
2024/03/01 00:55:37;;;;;;;5.93;4.68;;;9.70;99.90;;;;;;5055887;28;20477;-86
2024/03/01 00:58:03;;;;;;;7.07;5.15;;;9.70;99.90;;;;;;5038469;28;20029;-86
2024/03/01 01:00:29;;;;;;;7.90;5.70;;;9.70;99.90;;;;;;5056467;28;20040;-86
2024/03/01 01:02:55;;;;;;;7.88;5.18;;;9.70;99.90;;;;;;5038482;28;20239;-85
2024/03/01 01:05:22;;;;;;;7.00;4.80;;;9.70;99.90;;;;;;5039743;28;20029;-86
2024/03/01 01:07:48;;;;;;;7.10;5.28;;;9.70;99.90;;;;;;5076785;28;20025;-85
2024/03/01 01:10:15;;;;;;;6.47;4.90;;;9.80;99.90;;;;;;5046184;28;20036;-86
2024/03/01 01:12:41;;;;;;;6.88;5.40;;;9.80;99.90;;;;;;5046065;28;20057;-85
2024/03/01 01:15:07;;;;;;;6.55;5.18;;;9.70;99.90;;;;;;5062247;28;20005;-86
2024/03/01 01:17:32;;;;;;;7.30;4.75;;;9.70;99.90;;;;;;5039924;28;20052;-86
2024/03/01 01:19:59;;;;;;;6.68;4.93;;;9.70;99.90;;;;;;5037509;28;20033;-86
2024/03/01 01:22:25;;;;;;;8.70;4.80;;;9.70;99.90;;;;;;5054019;28;20040;-86
2024/03/01 01:24:51;;;;;;;7.50;5.28;;;9.70;99.90;;;;;;5055167;28;20064;-86
2024/03/01 01:27:17;;;;;;;6.60;4.93;;;9.80;99.90;;;;;;5053998;28;20502;-86
2024/03/01 01:29:42;;;;;;;7.00;4.90;;;9.80;99.90;;;;;;5020888;28;20119;-85
2024/03/01 01:32:08;;;;;;;6.63;5.18;;;9.70;99.90;;;;;;5037388;28;20041;-86
2024/03/01 01:34:36;;;;;;;7.82;5.18;;;9.70;99.90;;;;;;5020979;28;20029;-85
2024/03/01 01:37:03;;;;;;;7.75;5.50;;;9.80;99.90;;;;;;5054068;28;20472;-86
2024/03/01 01:39:30;;;;;;;7.28;5.07;;;9.80;99.90;;;;;;5054013;28;20090;-86
2024/03/01 01:41:55;;;;;;;7.32;5.05;;;9.80;99.90;;;;;;5037287;28;20033;-85
2024/03/01 01:44:21;;;;;;;7.10;5.03;;;9.80;99.90;;;;;;5055306;28;20040;-86
2024/03/01 01:46:50;;;;;;;7.45;5.43;;;9.80;99.90;;;;;;5005714;28;20040;-86
2024/03/01 01:49:23;;;;;;;7.47;5.45;;;9.80;99.90;;;;;;5055956;28;20025;-86
2024/03/01 01:51:49;;;;;;;8.15;5.30;;;9.80;99.90;;;;;;5055075;28;20468;-85
2024/03/01 01:54:15;;;;;;;7.90;5.78;;;9.80;99.90;;;;;;5021129;28;20124;-87
2024/03/01 01:56:42;;;;;;;6.72;4.75;;;9.80;99.90;;;;;;5055243;28;20021;-86
2024/03/01 01:59:09;;;;;;;6.85;5.15;;;9.70;99.90;;;;;;5020844;28;20060;-85
2024/03/01 02:01:35;;;;;;;8.20;5.80;;;9.70;99.90;;;;;;5036642;28;20025;-86
2024/03/01 02:04:02;;;;;;;6.72;5.18;;;9.70;99.90;;;;;;5054254;28;20049;-86
2024/03/01 02:06:28;;;;;;;7.15;5.30;;;9.70;99.90;;;;;;5054551;28;20036;-85
2024/03/01 02:08:54;;;;;;;6.65;5.30;;;9.70;99.90;;;;;;5036673;28;20033;-85
2024/03/01 02:11:20;;;;;;;7.38;5.30;;;9.70;99.90;;;;;;5036407;28;20125;-86
2024/03/01 02:13:45;;;;;;;6.88;5.05;;;9.70;99.90;;;;;;5053435;28;20179;-85
2024/03/01 02:16:11;;;;;;;7.80;5.80;;;9.70;99.90;;;;;;5036749;28;20441;-86
2024/03/01 02:18:37;;;;;;;8.68;5.50;;;9.70;99.90;;;;;;5003969;28;20048;-85
2024/03/01 02:21:06;;;;;;;8.40;5.53;;;9.70;99.90;;;;;;5036514;28;20036;-86
2024/03/01 02:23:32;;;;;;;7.15;5.07;;;9.70;99.90;;;;;;5053310;28;20465;-86
2024/03/01 02:25:58;;;;;;;6.88;4.93;;;9.70;99.90;;;;;;5053562;28;20029;-86
2024/03/01 02:28:24;;;;;;;8.05;5.25;;;9.70;99.90;;;;;;5053187;28;20020;-86
2024/03/01 02:30:51;;;;;;;6.78;5.25;;;9.70;99.90;;;;;;5020765;28;20422;-86
2024/03/01 02:33:18;;;;;;;8.07;4.95;;;9.70;99.90;;;;;;5054895;28;20025;-87
2024/03/01 02:35:45;;;;;;;7.85;5.45;;;9.70;99.90;;;;;;5054578;28;20089;-86
2024/03/01 02:38:11;;;;;;;7.70;5.30;;;9.60;99.90;;;;;;5075960;28;20029;-86
2024/03/01 02:40:37;;;;;;;7.72;5.53;;;9.70;99.90;;;;;;5060742;28;20024;-86
2024/03/01 02:43:03;;;;;;;8.05;5.90;;;9.70;99.90;;;;;;5077266;28;20017;-86
2024/03/01 02:45:28;;;;;;;7.00;5.50;;;9.70;99.90;;;;;;5056210;28;20045;-86
2024/03/01 02:47:55;;;;;;;7.38;5.85;;;9.60;99.90;;;;;;5019766;28;20083;-86
2024/03/01 02:50:20;;;;;;;8.57;6.18;;;9.60;99.90;;;;;;5052232;28;20024;-84
2024/03/01 02:52:47;;;;;;;8.15;5.93;;;9.60;99.90;;;;;;5019035;28;20385;-86
2024/03/01 02:55:19;;;;;;;8.27;5.88;;;9.60;99.90;;;;;;5019717;28;20029;-86
2024/03/01 02:57:52;;;;;;;7.72;6.10;;;9.60;99.90;;;;;;5036755;28;20055;-85
2024/03/01 03:00:19;;;;;;;7.95;5.82;;;9.60;99.90;;;;;;5036779;28;20021;-86
2024/03/01 03:02:45;;;;;;;8.30;6.03;;;9.60;99.90;;;;;;5052510;28;20504;-86
2024/03/01 03:05:11;;;;;;;8.77;6.15;;;9.60;99.90;;;;;;5052356;28;20056;-86
2024/03/01 03:07:38;;;;;;;8.15;6.00;;;9.50;99.90;;;;;;5053577;28;20025;-85
2024/03/01 03:10:04;;;;;;;10.30;6.43;;;9.50;99.90;;;;;;5053579;28;20037;-87
2024/03/01 03:12:30;;;;;;;9.98;6.32;;;9.50;99.90;;;;;;5056647;28;20112;-86
2024/03/01 03:14:56;;;;;;;10.57;6.20;;;9.40;99.90;;;;;;5039424;28;20049;-87
2024/03/01 03:17:25;;;;;;;9.48;6.35;;;9.40;99.90;;;;;;5057476;28;20055;-85
2024/03/01 03:19:51;;;;;;;7.97;6.32;;;9.40;99.90;;;;;;5056096;28;20082;-86
2024/03/01 03:22:17;;;;;;;10.05;7.03;;;9.40;99.90;;;;;;5056196;28;20067;-85
2024/03/01 03:24:43;;;;;;;8.55;6.90;;;9.40;99.90;;;;;;5023235;28;20056;-86
2024/03/01 03:27:09;;;;;;;10.20;6.97;;;9.40;99.90;;;;;;5039357;28;20037;-85
2024/03/01 03:29:35;;;;;;;8.63;6.30;;;9.40;99.90;;;;;;5023092;28;20029;-86
2024/03/01 03:32:03;;;;;;;9.65;7.32;;;9.40;99.90;;;;;;5038964;28;20120;-86
2024/03/01 03:34:29;;;;;;;9.15;6.82;;;9.30;99.90;;;;;;5039525;28;20452;-86
2024/03/01 03:36:55;;;;;;;9.80;7.40;;;9.30;99.90;;;;;;5057154;28;20025;-85
2024/03/01 03:39:21;;;;;;;10.38;7.90;;;9.30;99.90;;;;;;5039372;28;20080;-86
2024/03/01 03:41:46;;;;;;;10.13;7.40;;;9.30;99.90;;;;;;5006547;28;20123;-86
2024/03/01 03:44:12;;;;;;;10.88;7.57;;;9.30;99.90;;;;;;5039673;28;20037;-86
2024/03/01 03:46:38;;;;;;;10.45;7.38;;;9.30;99.90;;;;;;5022850;28;20040;-85
2024/03/01 03:49:07;;;;;;;10.90;7.60;;;9.30;99.90;;;;;;5006263;28;20029;-85
2024/03/01 03:51:33;;;;;;;9.60;7.03;;;9.20;99.90;;;;;;5023167;28;20369;-85
2024/03/01 03:53:59;;;;;;;10.77;7.55;;;9.30;99.90;;;;;;5039609;28;20465;-86
2024/03/01 03:56:25;;;;;;;9.98;6.80;;;9.20;99.90;;;;;;5025511;28;20036;-85
2024/03/01 03:58:52;;;;;;;11.10;7.20;;;9.30;99.90;;;;;;5056231;28;20035;-86
2024/03/01 04:01:21;;;;;;;9.60;7.03;;;9.20;99.90;;;;;;5055834;28;20056;-87
2024/03/01 04:03:47;;;;;;;9.93;7.10;;;9.20;99.90;;;;;;5060752;28;20036;-87
2024/03/01 04:06:14;;;;;;;11.38;7.70;;;9.20;99.90;;;;;;5067433;28;20009;-85
2024/03/01 04:08:40;;;;;;;13.18;8.45;;;9.20;99.90;;;;;;5080249;28;20033;-85
2024/03/01 04:11:06;;;;;;;10.23;7.65;;;9.20;99.90;;;;;;5080143;28;20043;-85
2024/03/01 04:13:38;;;;;;;10.63;8.02;;;9.20;99.90;;;;;;5080013;28;20016;-86
2024/03/01 04:16:06;;;;;;;10.68;8.05;;;9.20;99.90;;;;;;5065341;28;20051;-85
2024/03/01 04:18:32;;;;;;;9.88;7.07;;;9.30;99.90;;;;;;5038944;28;20021;-86
2024/03/01 04:20:59;;;;;;;10.15;7.55;;;9.20;99.90;;;;;;5038728;28;20461;-86
2024/03/01 04:23:25;;;;;;;9.38;6.97;;;9.20;99.90;;;;;;5054548;28;20028;-85
2024/03/01 04:25:51;;;;;;;10.38;7.60;;;9.20;99.90;;;;;;5038309;28;20033;-85
2024/03/01 04:28:25;;;;;;;9.77;6.82;;;9.30;99.90;;;;;;5022137;28;20079;-86
2024/03/01 04:30:51;;;;;;;8.43;6.47;;;9.20;99.90;;;;;;5056185;28;20026;-86
2024/03/01 04:33:17;;;;;;;6.30;5.38;;;9.30;99.90;;;;;;5038241;28;20124;-85
2024/03/01 04:35:43;;;;;;;5.13;3.30;;;9.30;99.90;;;;;;5005520;28;20396;-85
2024/03/01 04:38:09;;;;;;;3.42;3.05;;;9.30;99.90;;;;;;5056608;28;20079;-85
2024/03/01 04:40:37;;;;;;;3.33;2.60;;;9.30;99.90;;;;;;5055224;28;20021;-85
2024/03/01 04:43:04;;;;;;;3.17;2.88;;;9.30;99.90;;;;;;5055691;28;20028;-85
2024/03/01 04:45:32;;;;;;;3.33;2.85;;;9.30;99.90;;;;;;5054455;28;20029;-85
2024/03/01 04:47:58;;;;;;;3.22;2.92;;;9.40;99.90;;;;;;5021683;28;20396;-85
2024/03/01 04:50:23;;;;;;;3.92;3.10;;;9.40;99.90;;;;;;5053989;28;20028;-85
2024/03/01 04:52:51;;;;;;;3.55;3.25;;;9.40;99.90;;;;;;5055794;28;20028;-85
2024/03/01 04:55:17;;;;;;;3.72;3.42;;;9.30;99.90;;;;;;5005974;28;20017;-85
2024/03/01 04:57:43;;;;;;;4.45;3.70;;;9.30;99.90;;;;;;5054314;28;20028;-86
2024/03/01 05:00:12;;;;;;;3.97;3.58;;;9.30;99.90;;;;;;5020961;28;20033;-85
2024/03/01 05:02:47;;;;;;;3.45;3.15;;;9.30;99.90;;;;;;5021276;28;20502;-85
2024/03/01 05:05:18;;;;;;;4.72;3.53;;;9.30;99.90;;;;;;5054170;28;20397;-86
2024/03/01 05:07:48;;;;;;;3.85;3.47;;;9.30;99.90;;;;;;5037994;28;20029;-86
2024/03/01 05:10:22;;;;;;;4.15;3.63;;;9.30;99.90;;;;;;5021163;28;20029;-85
2024/03/01 05:12:49;;;;;;;3.83;3.20;;;9.20;99.90;;;;;;5038423;28;20040;-87
2024/03/01 05:15:15;;;;;;;3.83;3.53;;;9.30;99.90;;;;;;5021000;28;20071;-87
2024/03/01 05:17:52;;;;;;;3.50;3.20;;;9.20;99.90;;;;;;5055114;28;20489;-86
2024/03/01 05:20:19;;;;;;;2.72;2.53;;;9.30;99.90;;;;;;5054291;28;20021;-86
2024/03/01 05:22:44;;;;;;;3.63;2.60;;;9.20;99.90;;;;;;5021272;28;20039;-87
2024/03/01 05:25:17;;;;;;;2.42;2.20;;;9.20;99.90;;;;;;5037841;28;20029;-86
2024/03/01 05:27:52;;;;;;;2.00;1.90;;;9.10;99.90;;;;;;5038825;28;20404;-86
2024/03/01 05:30:19;;;;;;;3.30;2.38;;;9.10;99.90;;;;;;5042228;28;20021;-86
2024/03/01 05:32:47;;;;;;;1.92;1.77;;;9.00;99.90;;;;;;5038979;28;20017;-85
2024/03/01 05:35:14;;;;;;;2.45;1.85;;;8.90;99.90;;;;;;5078378;28;20093;-84
2024/03/01 05:37:40;;;;;;;2.58;2.38;;;8.90;99.90;;;;;;5061470;28;20029;-85
2024/03/01 05:40:14;;;;;;;2.40;2.20;;;8.80;99.90;;;;;;5077796;28;20100;-85
2024/03/01 05:42:44;;;;;;;2.50;2.30;;;8.80;99.90;;;;;;5078776;28;20032;-86
2024/03/01 05:45:11;;;;;;;2.40;2.00;;;8.80;99.90;;;;;;5061639;28;20039;-86
2024/03/01 05:47:38;;;;;;;2.63;1.55;;;8.70;99.90;;;;;;5043694;28;20044;-84
2024/03/01 05:50:05;;;;;;;2.92;1.83;;;8.70;99.90;;;;;;5053091;28;20032;-84
2024/03/01 05:52:33;;;;;;;2.13;1.70;;;8.70;99.90;;;;;;5054353;28;20033;-84
2024/03/01 05:54:59;;;;;;;3.08;1.95;;;8.70;99.90;;;;;;5054248;28;20028;-85
2024/03/01 05:57:29;;;;;;;3.15;1.90;;;8.70;99.90;;;;;;5036508;28;20025;-84
2024/03/01 05:59:54;;;;;;;2.88;2.05;;;8.70;99.90;;;;;;5052934;28;20071;-85
2024/03/01 06:02:22;;;;;;;3.65;2.15;;;8.70;99.90;;;;;;5020035;28;20036;-85
2024/03/01 06:04:48;;;;;;;3.17;2.33;;;8.70;99.90;;;;;;5036351;28;20397;-84
2024/03/01 06:07:15;;;;;;;3.25;2.88;;;8.70;99.90;;;;;;5054286;28;20031;-84
2024/03/01 06:09:41;;;;;;;2.72;2.50;;;8.70;99.90;;;;;;5036884;28;20033;-86
2024/03/01 06:12:06;;;;;;;2.67;2.47;;;8.70;99.90;;;;;;5019344;28;20035;-84
2024/03/01 06:14:32;;;;;;;4.55;2.38;;;8.70;99.90;;;;;;5019602;28;20051;-84
2024/03/01 06:17:01;;;;;;;3.40;2.40;;;8.70;99.90;;;;;;5035782;28;20090;-84
2024/03/01 06:19:27;;;;;;;3.45;2.85;;;8.80;99.90;;;;;;5003071;28;20465;-83
2024/03/01 06:21:55;;;;;;;6.00;3.70;;;8.80;99.90;;;;;;5034980;28;20036;-83
2024/03/01 06:24:22;;;;;;;7.03;4.00;;;8.70;99.90;;;;;;5053584;28;20033;-82
2024/03/01 06:26:49;;;;;;;5.35;4.13;;;8.80;99.90;;;;;;5019521;28;20029;-83
2024/03/01 06:29:15;;;;;;;5.53;4.43;;;8.80;99.90;;;;;;5036030;28;20029;-84
2024/03/01 06:31:42;;;;;;;4.53;4.10;;;8.70;99.90;;;;;;5052308;28;20041;-84
2024/03/01 06:34:08;;;;;;;5.40;4.15;;;8.70;99.90;;;;;;5052401;28;20484;-83
2024/03/01 06:36:33;;;;;;;4.22;3.70;;;8.70;99.90;;;;;;5002767;28;20025;-84
2024/03/01 06:38:59;;;;;;;3.80;3.40;;;8.80;99.90;;;;;;5019474;28;20060;-83
2024/03/01 06:41:25;;;;;;;4.20;3.50;;;8.70;99.90;;;;;;5019360;28;20163;-82
2024/03/01 06:43:51;;;;;;;3.85;2.80;;;8.70;99.90;;;;;;5052398;28;20067;-83
2024/03/01 06:46:16;;;;;;;5.10;2.75;;;8.70;99.90;;;;;;5035908;28;20118;-83
2024/03/01 06:48:42;;;;;;;3.78;2.05;;;8.70;99.90;;;;;;5035673;28;20033;-83
2024/03/01 06:51:08;;;;;;;2.22;1.80;;;8.70;99.90;;;;;;5053658;28;20117;-83
2024/03/01 06:53:33;;;;;;;2.50;2.00;;;8.70;99.90;;;;;;5036243;28;20124;-83
2024/03/01 06:56:04;;;;;;;4.70;2.28;;;8.70;99.90;;;;;;5053634;28;20469;-82
2024/03/01 06:58:30;;;;;;;2.70;1.90;;;8.80;99.90;;;;;;5036498;28;20037;-82
2024/03/01 07:00:56;;;;;;;3.30;1.83;;;8.80;99.90;;;;;;5037765;28;20025;-82
2024/03/01 07:03:22;;;;;;;2.97;1.75;;;8.80;99.90;;;;;;5030907;28;20013;-85
2024/03/01 07:05:47;;;;;;;3.42;1.77;;;8.80;99.90;;;;;;5060786;28;20033;-85
2024/03/01 07:08:13;;;;;;;2.70;1.80;;;8.80;99.90;;;;;;5027896;28;20021;-83
2024/03/01 07:10:39;;;;;;;4.63;2.17;;;8.80;99.90;;;;;;5060157;28;20069;-84
2024/03/01 07:13:04;;;;;;;3.72;2.20;;;8.90;99.90;;;;;;5030702;28;20484;-83
2024/03/01 07:15:30;;;;;;;3.83;2.20;;;8.90;99.90;;;;;;5018927;28;20120;-84
2024/03/01 07:17:59;;;;;;;3.25;2.58;;;8.80;99.90;;;;;;5035089;28;20045;-83
2024/03/01 07:20:25;;;;;;;3.17;2.70;;;8.90;99.90;;;;;;5002760;28;20124;-84
2024/03/01 07:22:51;;;;;;;3.38;2.47;;;8.90;99.90;;;;;;5051979;28;20063;-84
2024/03/01 07:25:17;;;;;;;3.10;2.30;;;8.80;99.90;;;;;;5035356;28;20083;-85
2024/03/01 07:27:43;;;;;;;3.28;2.30;;;8.80;99.90;;;;;;5019043;28;20056;-84
2024/03/01 07:30:19;;;;;;;4.43;2.88;;;8.80;99.90;;;;;;5018915;28;20396;-86
2024/03/01 07:32:46;;;;;;;3.25;2.50;;;8.80;99.90;;;;;;5052016;28;20049;-85
2024/03/01 07:35:12;;;;;;;3.35;2.47;;;8.70;99.90;;;;;;5051983;28;20021;-84
2024/03/01 07:37:39;;;;;;;3.20;2.28;;;8.70;99.90;;;;;;5051812;28;20330;-83
2024/03/01 07:40:05;;;;;;;4.85;2.88;;;8.70;99.90;;;;;;5052366;28;20025;-83
2024/03/01 07:42:31;;;;;;;3.60;2.90;;;8.70;99.90;;;;;;5003030;28;20025;-84
2024/03/01 07:45:00;;;;;;;4.28;3.03;;;8.70;99.90;;;;;;5035271;28;20096;-85
2024/03/01 07:47:29;;;;;;;4.35;3.00;;;8.70;99.90;;;;;;5018797;28;20031;-83
2024/03/01 07:49:55;;;;;;;5.07;3.55;;;8.70;99.90;;;;;;5054147;28;20025;-85
2024/03/01 07:52:21;;;;;;;5.00;3.22;;;8.70;99.90;;;;;;5035563;28;20534;-85
2024/03/01 07:54:47;;;;;;;4.97;3.33;;;8.60;99.90;;;;;;5019427;28;20033;-84
2024/03/01 07:57:14;;;;;;;6.53;3.67;;;8.70;99.90;;;;;;5019392;28;20043;-84
2024/03/01 07:59:40;;;;;;;6.05;3.40;;;8.70;99.90;;;;;;5038497;28;20033;-82
2024/03/01 08:02:09;;;;;;;5.93;3.22;;;8.70;99.90;;;;;;5057250;28;20071;-83
2024/03/01 08:04:34;;;;;;;4.90;3.38;;;8.70;99.90;;;;;;5023313;28;20029;-84
2024/03/01 08:07:01;;;;;;;4.20;3.45;;;8.80;99.90;;;;;;5056993;28;20040;-84
2024/03/01 08:09:36;;;;;;;5.60;4.13;;;8.80;99.90;;;;;;5022303;28;20032;-83
2024/03/01 08:12:13;;;;;;;5.13;3.63;;;8.80;99.90;;;;;;5055322;28;20124;-84
2024/03/01 08:14:39;;;;;;;6.72;4.38;;;8.80;99.90;;;;;;5038519;28;20059;-83
2024/03/01 08:17:09;;;;;;;8.00;5.45;;;8.90;99.90;;;;;;5054988;28;20083;-84
2024/03/01 08:19:45;;;;;;;6.82;5.43;;;8.80;99.90;;;;;;5055251;28;20032;-84
2024/03/01 08:22:14;;;;;;;9.02;6.50;;;8.90;99.90;;;;;;5056390;28;20045;-84
2024/03/01 08:24:42;;;;;;;8.93;6.50;;;8.80;99.90;;;;;;5055368;28;20044;-84
2024/03/01 08:27:11;;;;;;;8.25;6.70;;;8.80;99.90;;;;;;5055470;28;20024;-84
2024/03/01 08:29:37;;;;;;;9.50;7.15;;;8.90;99.90;;;;;;5023631;28;20505;-84
2024/03/01 08:32:04;;;;;;;8.93;7.15;;;8.90;99.90;;;;;;5035161;28;20028;-83
2024/03/01 08:34:41;;;;;;;10.75;8.18;;;8.90;99.90;;;;;;5030409;28;20035;-85
2024/03/01 08:37:07;;;;;;;8.65;7.68;;;9.00;99.90;;;;;;5079426;28;20063;-84
2024/03/01 08:39:33;;;;;;;8.77;7.65;;;9.00;99.90;;;;;;5027838;28;20029;-84
2024/03/01 08:42:01;;;;;;;9.10;7.63;;;9.00;99.90;;;;;;5009890;28;20035;-83
2024/03/01 08:44:50;;;;;;;10.15;8.40;;;9.10;99.90;;;;;;5054226;28;20052;-84
2024/03/01 08:47:30;;;;;;;8.38;7.57;;;9.20;99.90;;;;;;5054666;28;20029;-83
2024/03/01 08:50:14;;;;;;;9.15;7.55;;;9.20;99.90;;;;;;5055886;28;20033;-84
2024/03/01 08:52:40;;;;;;;10.05;7.93;;;9.20;99.90;;;;;;5055670;28;20043;-83
2024/03/01 08:55:17;;;;;;;9.68;8.20;;;9.30;99.90;;;;;;5037415;28;20025;-83
2024/03/01 08:57:48;;;;;;;9.70;8.02;;;9.30;99.90;;;;;;5037616;28;20029;-84
2024/03/01 09:00:26;;;;;;;10.07;7.70;;;9.30;99.90;;;;;;5054393;28;20056;-84
2024/03/01 09:02:52;;;;;;;8.90;7.63;;;9.30;99.90;;;;;;5037505;28;20029;-83
2024/03/01 09:05:21;;;;;;;9.25;7.38;;;9.30;99.90;;;;;;5055548;28;20111;-84
2024/03/01 09:07:47;;;;;;;10.25;7.43;;;9.40;99.90;;;;;;5037715;28;20029;-85
2024/03/01 09:10:33;;;;;;;11.30;7.80;;;9.40;99.90;;;;;;5055276;28;20039;-84
2024/03/01 09:13:00;;;;;;;9.65;8.05;;;9.30;99.90;;;;;;5037433;28;20032;-84
2024/03/01 09:15:30;;;;;;;10.70;8.23;;;9.30;99.90;;;;;;5021134;28;20473;-83
2024/03/01 09:17:55;;;;;;;10.25;7.07;;;9.30;99.90;;;;;;5054127;28;20053;-83
2024/03/01 09:20:36;;;;;;;9.32;8.02;;;9.30;99.90;;;;;;5054520;28;20032;-83
2024/03/01 09:23:11;;;;;;;9.20;8.00;;;9.40;99.90;;;;;;5054092;28;20100;-83
2024/03/01 09:25:45;;;;;;;10.70;8.10;;;9.40;99.90;;;;;;5053916;28;20025;-83
2024/03/01 09:28:12;;;;;;;8.48;7.18;;;9.40;99.90;;;;;;5037268;28;20037;-85
2024/03/01 09:30:39;;;;;;;9.98;7.00;;;9.40;99.90;;;;;;5004471;28;20083;-84
2024/03/01 09:33:11;;;;;;;8.25;6.25;;;9.40;99.90;;;;;;5037320;28;20021;-84
2024/03/01 09:35:37;;;;;;;8.45;6.85;;;9.40;99.90;;;;;;5053533;28;20108;-83
2024/03/01 09:38:04;;;;;;;10.13;6.93;;;9.40;99.90;;;;;;5053333;28;20053;-84
2024/03/01 09:40:52;;;;;;;7.95;5.97;;;9.40;99.90;;;;;;5053495;28;20542;-84
2024/03/01 09:43:29;;;;;;;7.65;5.38;;;9.40;99.90;;;;;;5036428;28;20029;-84
2024/03/01 09:45:59;;;;;;;8.73;5.70;;;9.50;99.90;;;;;;5036763;28;20383;-84
2024/03/01 09:48:38;;;;;;;7.32;5.95;;;9.60;99.90;;;;;;5054002;28;20029;-85
2024/03/01 09:51:22;;;;;;;7.22;5.78;;;9.70;99.90;;;;;;5037110;28;20120;-84
2024/03/01 09:54:15;;;;;;;6.32;5.60;;;9.70;99.90;;;;;;5037592;28;20032;-83
2024/03/01 09:56:44;;;;;;;7.00;5.18;;;9.70;99.90;;;;;;5055543;28;20032;-84
2024/03/01 09:59:33;;;;;;;7.68;5.38;;;9.80;99.90;;;;;;5040673;28;20123;-84
2024/03/01 10:02:13;;;;;;;6.63;4.10;;;9.90;99.90;;;;;;5056423;28;20029;-83
2024/03/01 10:04:48;;;;;;;7.05;4.32;;;10.00;99.90;;;;;;5061127;28;20009;-85
2024/03/01 10:07:34;;;;;;;7.97;4.70;;;10.00;99.90;;;;;;5061131;28;20025;-83
2024/03/01 10:10:00;;;;;;;7.03;3.97;;;10.10;99.90;;;;;;5076988;28;20021;-85
2024/03/01 10:13:01;;;;;;;5.60;4.25;;;10.10;99.90;;;;;;5054518;28;20098;-83
2024/03/01 10:15:40;;;;;;;5.20;3.67;;;10.10;99.90;;;;;;5053399;28;20540;-83
2024/03/01 10:18:24;;;;;;;7.32;4.25;;;10.20;99.90;;;;;;5052473;28;20051;-83
2024/03/01 10:21:27;;;;;;;6.07;3.70;;;10.30;99.90;;;;;;5035620;28;20083;-84
2024/03/01 10:24:17;;;;;;;6.07;3.67;;;10.30;99.90;;;;;;5053621;28;20039;-83
2024/03/01 10:26:52;;;;;;;6.32;3.58;;;10.30;99.90;;;;;;5053889;28;20104;-84
2024/03/01 10:29:29;;;;;;;5.53;2.85;;;10.30;99.90;;;;;;5052524;28;20021;-85
2024/03/01 10:32:18;;;;;;;6.10;3.25;;;10.40;99.90;;;;;;5052639;28;20028;-84
2024/03/01 10:34:56;;;;;;;8.50;3.28;;;10.40;99.90;;;;;;5052423;28;20017;-85
2024/03/01 10:37:49;;;;;;;6.70;3.78;;;10.40;99.90;;;;;;5035832;28;20093;-84
2024/03/01 10:40:19;;;;;;;5.30;3.10;;;10.40;99.90;;;;;;5035839;28;20052;-83
2024/03/01 10:43:06;;;;;;;7.78;3.58;;;10.50;99.90;;;;;;5053525;28;20080;-84
2024/03/01 10:45:42;;;;;;;7.00;3.65;;;10.50;99.90;;;;;;5052784;28;20428;-84
2024/03/01 10:48:08;;;;;;;6.05;3.10;;;10.50;99.90;;;;;;5052779;28;20021;-84
2024/03/01 10:50:46;;;;;;;7.30;3.20;;;10.50;99.90;;;;;;5035999;28;20087;-84
2024/03/01 10:53:20;;;;;;;4.45;3.03;;;10.50;99.90;;;;;;5036454;28;20028;-84
2024/03/01 10:56:16;;;;;;;7.97;3.33;;;10.50;99.90;;;;;;5053443;28;20071;-83
2024/03/01 10:58:54;;;;;;;7.95;3.30;;;10.50;99.90;;;;;;5029292;28;20033;-83
2024/03/01 11:01:33;;;;;;;7.28;3.28;;;10.50;99.90;;;;;;5053904;28;20112;-84
2024/03/01 11:04:28;;;;;;;4.70;3.05;;;10.50;99.90;;;;;;5052215;28;20029;-83
2024/03/01 11:07:08;;;;;;;6.63;2.90;;;10.60;99.90;;;;;;5052344;28;20025;-84
2024/03/01 11:09:57;;;;;;;5.00;2.40;;;10.70;99.90;;;;;;5035814;28;20025;-84
2024/03/01 11:12:54;;;;;;;3.65;2.17;;;10.70;99.90;;;;;;5051156;28;20117;-83
2024/03/01 11:15:26;;;;;;;6.43;3.00;;;10.80;99.90;;;;;;5053725;28;20021;-83
2024/03/01 11:17:54;;;;;;;3.83;2.50;;;10.80;99.90;;;;;;5053599;28;20069;-83
2024/03/01 11:20:34;;;;;;;4.38;2.40;;;10.70;99.90;;;;;;5019605;28;20036;-83
2024/03/01 11:23:10;;;;;;;3.63;2.30;;;10.80;99.90;;;;;;5053115;28;20494;-83
2024/03/01 11:25:49;;;;;;;5.50;3.15;;;10.80;99.90;;;;;;5036584;28;20048;-83
2024/03/01 11:28:22;;;;;;;5.00;2.63;;;10.80;99.90;;;;;;5052713;28;20025;-84
2024/03/01 11:30:53;;;;;;;4.28;2.20;;;10.90;99.90;;;;;;5055971;28;20028;-84
2024/03/01 11:33:22;;;;;;;4.82;2.30;;;10.80;99.90;;;;;;5056235;28;20100;-83
2024/03/01 11:35:57;;;;;;;4.97;2.40;;;10.80;99.90;;;;;;5081000;28;20040;-83
2024/03/01 11:39:06;;;;;;;6.00;2.20;;;10.80;99.90;;;;;;5081035;28;20036;-83
2024/03/01 11:41:59;;;;;;;4.95;1.90;;;10.80;99.90;;;;;;5067688;28;20116;-83
2024/03/01 11:44:40;;;;;;;2.80;2.05;;;10.80;99.90;;;;;;5040270;28;20094;-83
2024/03/01 11:47:15;;;;;;;4.15;2.00;;;10.80;99.90;;;;;;5055752;28;20185;-83
2024/03/01 11:49:55;;;;;;;3.15;1.73;;;10.80;99.90;;;;;;5039083;28;20028;-83
2024/03/01 11:52:34;;;;;;;3.00;1.67;;;10.90;99.90;;;;;;5056823;28;20040;-84
2024/03/01 11:55:06;;;;;;;3.25;1.58;;;11.00;99.90;;;;;;5056678;28;20029;-84
2024/03/01 11:57:42;;;;;;;2.63;1.50;;;11.00;99.90;;;;;;5038657;28;20069;-84
2024/03/01 12:00:30;;;;;;;2.42;1.50;;;11.00;99.90;;;;;;5055209;28;20180;-84
2024/03/01 12:03:40;;;;;;;2.78;1.38;;;11.10;99.90;;;;;;5038667;28;20029;-84
2024/03/01 12:06:05;;;;;;;4.20;1.15;;;11.00;99.90;;;;;;5046409;28;20149;-84
2024/03/01 12:08:44;;;;;;;4.57;1.58;;;11.00;99.90;;;;;;5038594;28;20064;-84
2024/03/01 12:11:28;;;;;;;3.15;1.70;;;11.00;99.90;;;;;;5055077;28;20025;-83
2024/03/01 12:13:55;;;;;;;4.88;1.52;;;11.00;99.90;;;;;;5056331;28;20033;-84
2024/03/01 12:16:47;;;;;;;3.22;1.55;;;11.00;99.90;;;;;;5021777;28;20036;-83
2024/03/01 12:19:19;;;;;;;2.50;1.20;;;11.10;99.90;;;;;;5050086;28;20481;-83
2024/03/01 12:22:17;;;;;;;4.05;1.58;;;11.10;99.90;;;;;;5022490;28;20021;-84
2024/03/01 12:24:46;;;;;;;2.78;1.20;;;11.20;99.90;;;;;;5014528;28;20418;-83
2024/03/01 12:27:42;;;;;;;2.90;1.40;;;11.20;99.90;;;;;;4997812;28;20500;-83
2024/03/01 12:30:37;;;;;;;3.63;1.45;;;11.20;99.90;;;;;;5014334;28;20029;-84
2024/03/01 12:33:18;;;;;;;2.38;1.30;;;11.20;99.90;;;;;;4989601;28;20053;-83
2024/03/01 12:36:02;;;;;;;2.63;1.33;;;11.20;99.90;;;;;;5014323;28;20033;-83
2024/03/01 12:38:36;;;;;;;2.83;1.10;;;11.10;99.90;;;;;;5014328;28;20054;-83
2024/03/01 12:41:32;;;;;;;2.03;1.08;;;11.20;99.90;;;;;;4997932;28;20025;-83
2024/03/01 12:44:07;;;;;;;3.25;1.20;;;11.20;99.90;;;;;;5013400;28;20034;-83
2024/03/01 12:46:51;;;;;;;2.30;1.08;;;11.20;99.90;;;;;;5014147;28;20034;-83
2024/03/01 12:49:38;;;;;;;3.67;1.20;;;11.20;99.90;;;;;;5013639;28;20041;-83
2024/03/01 12:52:41;;;;;;;3.22;1.00;;;11.20;99.90;;;;;;4997943;28;20048;-82
2024/03/01 12:55:27;;;;;;;3.55;1.17;;;11.20;99.90;;;;;;5024907;28;20032;-82
2024/03/01 12:58:04;;;;;;;3.17;1.00;;;11.30;99.90;;;;;;5055651;28;20013;-83
2024/03/01 13:00:40;;;;;;;1.67;0.80;;;11.30;99.90;;;;;;5046644;28;20125;-84
2024/03/01 13:03:24;;;;;;;1.13;0.70;;;11.30;99.90;;;;;;5061900;28;20017;-83
2024/03/01 13:05:51;;;;;;;2.58;0.70;;;11.30;99.90;;;;;;5078590;28;20032;-83
2024/03/01 13:08:24;;;;;;;1.50;0.80;;;11.30;99.90;;;;;;5060688;28;20013;-83
2024/03/01 13:10:49;;;;;;;2.67;0.60;;;11.30;99.90;;;;;;5078792;28;20029;-83
2024/03/01 13:13:24;;;;;;;2.60;0.90;;;11.20;99.90;;;;;;5019438;28;20049;-83